Labelle, Florida
Current Conditions -  °F | °C
As of 8:55 PM on Wednesday 22 Oct 2014 (Local Time) from KIMM Reporting Station
Few Clouds Few Clouds  
Wind Chill: 75°   Ceiling: Unl
Heat Index: 75°   Visibility: 9mi
Dew Point: 75°   Wind: 0mph
Humidity: 100%   Direction: NA
Pressure: 29.96"   Gusts: NA
Location:  26.7507°N, 81.4305°W
Report Text: KIMM 230055Z AUTO 00000KT 9SM FEW034 24/24 A2996 RMK A01 P000
Loading
Personal Weather Stations






























Interactive Weather Map
Tropical Storm Tracking
New forecast layout! Learn more

10-Day Weather Forecast

Advertisements
Track Severe Weather on mobile